createdAt,value
2017-08-10T00:00:21.677Z,101700.70
2017-08-10T00:02:49.602Z,101691.07
2017-08-10T00:05:17.466Z,101695.64
2017-08-10T00:07:45.347Z,101697.97
2017-08-10T00:10:13.080Z,101694.98
2017-08-10T00:12:40.890Z,101696.80
2017-08-10T00:15:08.720Z,101694.69
2017-08-10T00:17:36.600Z,101698.61
2017-08-10T00:20:04.441Z,101697.32
2017-08-10T00:23:07.125Z,101703.55
2017-08-10T00:25:34.869Z,101695.09
2017-08-10T00:28:02.846Z,101693.39
2017-08-10T00:30:30.670Z,101695.03
2017-08-10T00:33:06.763Z,101695.49
2017-08-10T00:35:34.594Z,101689.78
2017-08-10T00:38:02.428Z,101682.67
2017-08-10T00:40:30.206Z,101695.36
2017-08-10T00:42:57.984Z,101705.64
2017-08-10T00:45:25.865Z,101709.50
2017-08-10T00:47:53.711Z,101718.73
2017-08-10T00:50:21.583Z,101711.74
2017-08-10T00:52:49.431Z,101711.98
2017-08-10T00:55:17.307Z,101718.74
2017-08-10T00:57:45.610Z,101727.93
2017-08-10T01:00:13.580Z,101734.48
2017-08-10T01:02:41.439Z,101739.47
2017-08-10T01:05:09.329Z,101742.58
2017-08-10T01:07:37.147Z,101735.41
2017-08-10T01:10:06.290Z,101737.12
2017-08-10T01:12:34.153Z,101738.70
2017-08-10T01:15:02.091Z,101732.63
2017-08-10T01:17:29.956Z,101737.48
2017-08-10T01:19:57.806Z,101738.77
2017-08-10T01:22:25.681Z,101727.78
2017-08-10T01:24:53.496Z,101719.07
2017-08-10T01:27:21.372Z,101713.62
2017-08-10T01:29:49.214Z,101722.48
2017-08-10T01:32:17.120Z,101720.67
2017-08-10T01:34:44.861Z,101725.80
2017-08-10T01:37:12.704Z,101726.22
2017-08-10T01:39:40.580Z,101727.95
2017-08-10T01:42:08.318Z,101715.05
2017-08-10T01:44:36.193Z,101711.49
2017-08-10T01:47:04.048Z,101711.91
2017-08-10T01:49:31.941Z,101713.06
2017-08-10T01:51:59.681Z,101708.29
2017-08-10T01:54:27.483Z,101697.91
2017-08-10T01:56:55.305Z,101694.17
2017-08-10T01:59:23.200Z,101696.79
2017-08-10T02:01:51.073Z,101701.14
2017-08-10T02:04:18.964Z,101695.84
2017-08-10T02:06:46.869Z,101690.94
2017-08-10T02:09:14.723Z,101692.09
2017-08-10T02:11:42.589Z,101691.50
2017-08-10T02:14:10.414Z,101702.20
2017-08-10T02:16:38.282Z,101705.82
2017-08-10T02:19:06.108Z,101707.25
2017-08-10T02:21:33.975Z,101714.26
2017-08-10T02:24:01.686Z,101721.02
2017-08-10T02:26:29.583Z,101731.45
2017-08-10T02:28:57.399Z,101728.69
2017-08-10T02:31:25.128Z,101726.98
2017-08-10T02:33:52.994Z,101720.60
2017-08-10T02:36:20.829Z,101727.61
2017-08-10T02:38:48.688Z,101733.12
2017-08-10T02:41:16.514Z,101734.75
2017-08-10T02:43:44.377Z,101730.72
2017-08-10T02:46:12.214Z,101730.12
2017-08-10T02:48:40.091Z,101734.64
2017-08-10T02:51:07.948Z,101729.73
2017-08-10T02:53:35.853Z,101725.09
2017-08-10T02:56:03.604Z,101724.16
2017-08-10T02:58:31.475Z,101728.90
2017-08-10T03:00:59.273Z,101726.76
2017-08-10T03:03:27.136Z,101724.20
2017-08-10T03:05:54.936Z,101724.53
2017-08-10T03:08:22.761Z,101724.27
2017-08-10T03:10:50.640Z,101723.52
2017-08-10T03:13:18.482Z,101721.26
2017-08-10T03:15:46.363Z,101714.91
2017-08-10T03:18:14.195Z,101716.30
2017-08-10T03:20:42.040Z,101712.34
2017-08-10T03:23:09.979Z,101717.17
2017-08-10T03:25:37.849Z,101720.43
2017-08-10T03:28:05.712Z,101720.12
2017-08-10T03:30:36.622Z,101726.47
2017-08-10T03:33:04.414Z,101725.33
2017-08-10T03:35:32.373Z,101723.75
2017-08-10T03:38:00.263Z,101732.50
2017-08-10T03:40:28.112Z,101729.38
2017-08-10T03:42:55.911Z,101732.30
2017-08-10T03:45:23.785Z,101724.53
2017-08-10T03:47:51.621Z,101730.70
2017-08-10T03:50:19.388Z,101737.03
2017-08-10T03:52:47.253Z,101751.42
2017-08-10T03:55:15.168Z,101746.66
2017-08-10T03:57:43.013Z,101745.05
2017-08-10T04:00:10.899Z,101739.68
2017-08-10T04:02:38.769Z,101749.43
2017-08-10T04:05:06.604Z,101753.20
2017-08-10T04:07:34.476Z,101756.28
2017-08-10T04:10:02.319Z,101750.69
2017-08-10T04:12:30.213Z,101746.62
2017-08-10T04:14:58.055Z,101745.53
2017-08-10T04:17:25.955Z,101746.39
2017-08-10T04:19:53.810Z,101752.05
2017-08-10T04:22:21.716Z,101742.05
2017-08-10T04:24:49.600Z,101741.80
2017-08-10T04:27:17.448Z,101736.80
2017-08-10T04:29:45.325Z,101742.86
2017-08-10T04:32:13.063Z,101739.15
2017-08-10T04:34:40.937Z,101729.95
2017-08-10T04:37:08.795Z,101724.13
2017-08-10T04:39:36.699Z,101720.70
2017-08-10T04:42:04.461Z,101713.77
2017-08-10T04:44:32.217Z,101717.31
2017-08-10T04:46:59.943Z,101718.94
2017-08-10T04:49:27.655Z,101710.30
2017-08-10T04:51:55.431Z,101712.48
2017-08-10T04:54:23.148Z,101698.84
2017-08-10T04:56:50.919Z,101700.83
2017-08-10T04:59:18.662Z,101712.80
2017-08-10T05:01:46.428Z,101700.40
2017-08-10T05:04:14.194Z,101703.95
2017-08-10T05:06:41.962Z,101710.84
2017-08-10T05:09:09.697Z,101715.82
2017-08-10T05:11:37.425Z,101716.09
2017-08-10T05:14:05.216Z,101719.31
2017-08-10T05:16:32.963Z,101722.61
2017-08-10T05:19:00.716Z,101721.83
2017-08-10T05:21:28.471Z,101724.91
2017-08-10T05:23:56.265Z,101726.03
2017-08-10T05:26:24.002Z,101739.26
2017-08-10T05:28:51.832Z,101732.97
2017-08-10T05:31:19.565Z,101735.61
2017-08-10T05:33:47.297Z,101740.48
2017-08-10T05:36:15.085Z,101743.62
2017-08-10T05:38:42.840Z,101749.25
2017-08-10T05:41:10.631Z,101757.73
2017-08-10T05:43:38.414Z,101764.17
2017-08-10T05:46:06.263Z,101763.75
2017-08-10T05:48:34.000Z,101766.29
2017-08-10T05:51:01.804Z,101766.47
2017-08-10T05:53:29.552Z,101772.77
2017-08-10T05:55:57.412Z,101770.34
2017-08-10T05:58:25.243Z,101769.77
2017-08-10T06:00:53.120Z,101777.91
2017-08-10T06:03:20.988Z,101777.45
2017-08-10T06:05:48.915Z,101786.19
2017-08-10T06:08:16.777Z,101788.64
2017-08-10T06:10:44.656Z,101786.77
2017-08-10T06:13:12.549Z,101780.92
2017-08-10T06:15:40.631Z,101786.67
2017-08-10T06:18:08.430Z,101781.86
2017-08-10T06:20:36.273Z,101775.97
2017-08-10T06:23:04.170Z,101778.14
2017-08-10T06:25:31.940Z,101779.69
2017-08-10T06:27:59.845Z,101785.82
2017-08-10T06:30:27.616Z,101797.47
2017-08-10T06:32:55.440Z,101809.00
2017-08-10T06:35:23.318Z,101805.42
2017-08-10T06:37:51.208Z,101796.00
2017-08-10T06:40:19.076Z,101799.42
2017-08-10T06:42:47.000Z,101785.95
2017-08-10T06:45:14.766Z,101796.81
2017-08-10T06:47:42.565Z,101794.25
2017-08-10T06:50:10.500Z,101794.47
2017-08-10T06:52:38.401Z,101801.23
2017-08-10T06:55:06.155Z,101805.71
2017-08-10T06:57:33.956Z,101806.84
2017-08-10T07:00:08.396Z,101799.24
2017-08-10T07:02:36.237Z,101805.58
2017-08-10T07:05:04.197Z,101814.38
2017-08-10T07:07:32.052Z,101807.22
2017-08-10T07:09:59.973Z,101803.14
2017-08-10T07:12:27.824Z,101801.70
2017-08-10T07:14:55.749Z,101803.27
2017-08-10T07:17:23.614Z,101811.22
2017-08-10T07:19:51.532Z,101808.97
2017-08-10T07:22:19.437Z,101817.75
2017-08-10T07:24:47.329Z,101812.47
2017-08-10T07:27:15.179Z,101811.03
2017-08-10T07:29:42.964Z,101813.28
2017-08-10T07:32:10.725Z,101815.41
2017-08-10T07:34:38.531Z,101813.69
2017-08-10T07:37:06.337Z,101809.91
2017-08-10T07:39:34.111Z,101814.10
2017-08-10T07:42:01.924Z,101819.09
2017-08-10T07:44:29.688Z,101826.02
2017-08-10T07:46:57.506Z,101831.71
2017-08-10T07:49:25.399Z,101828.95
2017-08-10T07:51:53.201Z,101832.83
2017-08-10T07:54:20.953Z,101838.23
2017-08-10T07:56:48.773Z,101838.78
2017-08-10T07:59:16.661Z,101846.53
2017-08-10T08:01:44.566Z,101837.63
2017-08-10T08:04:12.328Z,101841.70
2017-08-10T08:06:40.205Z,101840.06
2017-08-10T08:09:08.004Z,101840.39
2017-08-10T08:11:35.751Z,101845.93
2017-08-10T08:14:03.662Z,101844.78
2017-08-10T08:16:31.489Z,101843.02
2017-08-10T08:18:59.269Z,101846.73
2017-08-10T08:21:27.854Z,101847.72
2017-08-10T08:23:55.646Z,101840.48
2017-08-10T08:26:23.471Z,101843.52
2017-08-10T08:28:51.319Z,101840.88
2017-08-10T08:31:19.522Z,101839.42
2017-08-10T08:33:47.733Z,101850.09
2017-08-10T08:36:15.503Z,101851.15
2017-08-10T08:38:43.755Z,101849.06
2017-08-10T08:41:11.573Z,101848.31
2017-08-10T08:43:39.331Z,101846.72
2017-08-10T08:46:07.150Z,101845.22
2017-08-10T08:48:35.004Z,101841.52
2017-08-10T08:51:02.901Z,101842.72
2017-08-10T08:53:32.423Z,101845.78
2017-08-10T08:56:00.846Z,101845.06
2017-08-10T08:58:28.643Z,101858.33
2017-08-10T09:00:56.977Z,101842.38
2017-08-10T09:03:24.950Z,101841.79
2017-08-10T09:05:53.736Z,101840.25
2017-08-10T09:08:21.475Z,101854.84
2017-08-10T09:10:49.393Z,101847.58
2017-08-10T09:13:17.225Z,101846.66
2017-08-10T09:15:45.087Z,101839.74
2017-08-10T09:18:13.630Z,101840.63
2017-08-10T09:20:41.658Z,101838.41
2017-08-10T09:23:09.537Z,101847.42
2017-08-10T09:25:38.364Z,101860.30
2017-08-10T09:28:06.158Z,101863.58
2017-08-10T09:30:33.891Z,101865.66
2017-08-10T09:33:01.762Z,101864.08
2017-08-10T09:35:29.593Z,101867.46
2017-08-10T09:37:57.357Z,101871.07
2017-08-10T09:40:25.212Z,101872.38
2017-08-10T09:42:53.142Z,101866.91
2017-08-10T09:45:20.981Z,101858.75
2017-08-10T09:47:48.806Z,101868.67
2017-08-10T09:50:16.652Z,101868.25
2017-08-10T09:52:44.386Z,101867.60
2017-08-10T09:55:12.277Z,101863.53
2017-08-10T09:57:40.021Z,101866.95
2017-08-10T10:00:07.855Z,101867.85
2017-08-10T10:02:35.595Z,101869.81
2017-08-10T10:05:03.536Z,101870.01
2017-08-10T10:07:31.381Z,101859.88
2017-08-10T10:09:59.190Z,101856.09
2017-08-10T10:12:27.060Z,101860.80
2017-08-10T10:14:54.926Z,101872.62
2017-08-10T10:17:22.765Z,101876.22
2017-08-10T10:19:50.563Z,101867.34
2017-08-10T10:22:18.712Z,101850.58
2017-08-10T10:24:46.450Z,101853.14
2017-08-10T10:27:14.240Z,101850.00
2017-08-10T10:29:41.974Z,101855.39
2017-08-10T10:32:09.765Z,101848.31
2017-08-10T10:34:37.491Z,101856.59
2017-08-10T10:37:05.320Z,101854.58
2017-08-10T10:39:33.111Z,101842.66
2017-08-10T10:42:00.890Z,101851.19
2017-08-10T10:44:28.620Z,101851.05
2017-08-10T10:46:56.435Z,101850.08
2017-08-10T10:49:24.171Z,101842.38
2017-08-10T10:51:51.998Z,101843.50
2017-08-10T10:54:19.783Z,101843.31
2017-08-10T10:56:47.582Z,101837.36
2017-08-10T10:59:15.328Z,101843.78
2017-08-10T11:01:43.075Z,101839.81
2017-08-10T11:04:11.445Z,101829.20
2017-08-10T11:06:39.293Z,101825.86
2017-08-10T11:09:07.248Z,101828.42
2017-08-10T11:11:35.191Z,101829.06
2017-08-10T11:16:37.197Z,101828.30
2017-08-10T11:19:05.112Z,101838.98
2017-08-10T11:21:33.073Z,101845.57
2017-08-10T11:24:00.917Z,101838.79
2017-08-10T11:26:28.772Z,101833.35
2017-08-10T11:28:56.705Z,101829.55
2017-08-10T11:31:26.690Z,101831.98
2017-08-10T11:33:54.583Z,101832.64
2017-08-10T11:36:22.436Z,101826.97
2017-08-10T11:38:50.332Z,101838.39
2017-08-10T11:41:18.177Z,101843.54
2017-08-10T11:43:46.017Z,101843.44
2017-08-10T11:46:14.017Z,101843.44
2017-08-10T11:48:41.869Z,101844.77
2017-08-10T11:51:09.784Z,101846.08
2017-08-10T11:53:37.663Z,101831.99
2017-08-10T11:56:05.582Z,101826.81
2017-08-10T11:58:33.489Z,101824.88
2017-08-10T12:01:01.435Z,101837.64
2017-08-10T12:03:29.329Z,101835.62
2017-08-10T12:05:57.280Z,101829.11
2017-08-10T12:08:25.142Z,101828.76
2017-08-10T12:10:53.050Z,101822.71
2017-08-10T12:13:20.934Z,101828.01
2017-08-10T12:15:48.873Z,101828.08
2017-08-10T12:18:16.765Z,101843.31
2017-08-10T12:20:44.622Z,101844.21
2017-08-10T12:23:12.712Z,101845.80
2017-08-10T12:25:40.496Z,101845.56
2017-08-10T12:28:08.405Z,101842.28
2017-08-10T12:30:36.418Z,101832.58
2017-08-10T12:33:04.294Z,101817.39
2017-08-10T12:35:32.136Z,101812.80
2017-08-10T12:38:00.029Z,101805.48
2017-08-10T12:40:27.860Z,101808.72
2017-08-10T12:42:55.700Z,101813.87
2017-08-10T12:45:23.531Z,101810.95
2017-08-10T12:47:51.449Z,101803.04
2017-08-10T12:50:19.324Z,101794.84
2017-08-10T12:52:47.220Z,101782.77
2017-08-10T12:55:15.085Z,101776.85
2017-08-10T12:57:42.920Z,101780.91
2017-08-10T13:00:10.789Z,101778.20
2017-08-10T13:02:38.582Z,101781.77
2017-08-10T13:05:06.723Z,101785.72
2017-08-10T13:07:34.590Z,101786.41
2017-08-10T13:10:02.470Z,101782.00
2017-08-10T13:12:30.351Z,101784.46
2017-08-10T13:14:58.172Z,101785.61
2017-08-10T13:17:26.086Z,101787.71
2017-08-10T13:19:54.036Z,101794.80
2017-08-10T13:22:21.896Z,101806.97
2017-08-10T13:24:49.831Z,101808.05
2017-08-10T13:27:17.635Z,101799.77
2017-08-10T13:29:45.394Z,101792.41
2017-08-10T13:32:13.187Z,101794.55
2017-08-10T13:34:40.984Z,101796.02
2017-08-10T13:37:08.747Z,101796.81
2017-08-10T13:39:36.530Z,101799.02
2017-08-10T13:42:04.320Z,101800.58
2017-08-10T13:44:32.084Z,101791.88
2017-08-10T13:46:59.879Z,101786.53
2017-08-10T13:49:27.676Z,101779.11
2017-08-10T13:51:55.591Z,101778.55
2017-08-10T13:54:23.716Z,101767.30
2017-08-10T13:56:51.459Z,101758.77
2017-08-10T13:59:19.258Z,101755.83
2017-08-10T14:01:46.967Z,101759.47
2017-08-10T14:04:14.782Z,101756.45
2017-08-10T14:06:42.511Z,101757.92
2017-08-10T14:09:10.265Z,101748.99
2017-08-10T14:11:37.992Z,101751.19
2017-08-10T14:14:05.744Z,101738.22
2017-08-10T14:16:33.479Z,101744.09
2017-08-10T14:19:01.252Z,101751.23
2017-08-10T14:21:29.172Z,101756.59
2017-08-10T14:23:56.965Z,101756.95
2017-08-10T14:26:24.783Z,101742.08
2017-08-10T14:28:52.545Z,101737.98
2017-08-10T14:31:20.434Z,101736.44
2017-08-10T14:33:48.301Z,101745.37
2017-08-10T14:36:16.221Z,101749.27
2017-08-10T14:38:44.051Z,101752.31
2017-08-10T14:41:11.934Z,101754.71
2017-08-10T14:43:39.777Z,101756.64
2017-08-10T14:46:07.587Z,101759.95
2017-08-10T14:48:35.400Z,101760.34
2017-08-10T14:51:03.285Z,101761.85
2017-08-10T14:53:31.117Z,101753.90
2017-08-10T14:55:58.985Z,101756.47
2017-08-10T14:58:26.722Z,101752.16
2017-08-10T15:00:54.613Z,101753.34
2017-08-10T15:03:22.504Z,101752.13
2017-08-10T15:05:50.329Z,101761.09
2017-08-10T15:08:18.201Z,101758.88
2017-08-10T15:10:46.038Z,101762.84
2017-08-10T15:13:13.914Z,101755.55
2017-08-10T15:15:41.731Z,101762.23
2017-08-10T15:18:09.643Z,101762.08
2017-08-10T15:20:37.574Z,101744.97
2017-08-10T15:23:05.469Z,101746.82
2017-08-10T15:25:33.215Z,101748.24
2017-08-10T15:28:01.109Z,101749.42
2017-08-10T15:30:28.924Z,101744.61
2017-08-10T15:32:56.831Z,101744.27
2017-08-10T15:35:24.688Z,101734.30
2017-08-10T15:37:52.512Z,101734.28
2017-08-10T15:40:20.405Z,101737.47
2017-08-10T15:42:48.217Z,101729.58
2017-08-10T15:45:16.089Z,101733.16
2017-08-10T15:47:43.834Z,101720.79
2017-08-10T15:50:11.749Z,101725.55
2017-08-10T15:52:39.685Z,101731.57
2017-08-10T15:55:07.595Z,101722.77
2017-08-10T15:57:35.448Z,101722.72
2017-08-10T16:00:03.328Z,101730.00
2017-08-10T16:02:31.164Z,101733.28
2017-08-10T16:04:59.089Z,101741.19
2017-08-10T16:07:26.892Z,101738.50
2017-08-10T16:09:54.749Z,101735.22
2017-08-10T16:12:22.621Z,101734.70
2017-08-10T16:14:50.361Z,101731.11
2017-08-10T16:17:18.312Z,101728.59
2017-08-10T16:19:46.138Z,101724.00
2017-08-10T16:22:14.007Z,101716.00
2017-08-10T16:24:41.832Z,101717.59
2017-08-10T16:27:09.708Z,101717.55
2017-08-10T16:29:37.569Z,101723.05
2017-08-10T16:32:05.589Z,101726.04
2017-08-10T16:34:33.456Z,101722.86
2017-08-10T16:37:01.423Z,101712.41
2017-08-10T16:39:29.245Z,101707.41
2017-08-10T16:41:57.137Z,101702.77
2017-08-10T16:44:24.996Z,101707.44
2017-08-10T16:46:52.866Z,101714.77
2017-08-10T16:49:20.715Z,101723.41
2017-08-10T16:51:48.565Z,101730.41
2017-08-10T16:54:16.468Z,101727.11
2017-08-10T16:56:44.376Z,101731.93
2017-08-10T16:59:12.264Z,101733.12
2017-08-10T17:01:40.119Z,101728.91
2017-08-10T17:04:07.913Z,101728.09
2017-08-10T17:06:35.648Z,101728.49
2017-08-10T17:09:03.492Z,101725.84
2017-08-10T17:11:31.252Z,101728.89
2017-08-10T17:13:59.042Z,101728.00
2017-08-10T17:16:26.762Z,101723.87
2017-08-10T17:18:54.487Z,101727.00
2017-08-10T17:21:22.268Z,101725.28
2017-08-10T17:23:49.980Z,101722.47
2017-08-10T17:26:17.760Z,101718.78
2017-08-10T17:28:45.529Z,101720.41
2017-08-10T17:31:13.316Z,101724.84
2017-08-10T17:33:41.062Z,101719.93
2017-08-10T17:36:08.871Z,101721.11
2017-08-10T17:38:36.590Z,101717.06
2017-08-10T17:41:04.372Z,101713.97
2017-08-10T17:43:32.118Z,101713.38
2017-08-10T17:45:59.926Z,101708.23
2017-08-10T17:48:27.648Z,101711.06
2017-08-10T17:50:55.376Z,101709.81
2017-08-10T17:53:23.169Z,101711.83
2017-08-10T17:55:50.944Z,101713.35
2017-08-10T17:58:18.726Z,101716.44
2017-08-10T18:00:46.484Z,101714.72
2017-08-10T18:03:14.289Z,101718.73
2017-08-10T18:05:42.039Z,101728.77
2017-08-10T18:08:09.830Z,101731.80
2017-08-10T18:10:37.581Z,101741.34
2017-08-10T18:13:05.449Z,101739.75
2017-08-10T18:15:33.189Z,101740.18
2017-08-10T18:18:00.988Z,101740.33
2017-08-10T18:20:28.730Z,101744.52
2017-08-10T18:22:56.591Z,101739.75
2017-08-10T18:25:24.505Z,101745.01
2017-08-10T18:27:52.404Z,101752.73
2017-08-10T18:30:20.344Z,101743.36
2017-08-10T18:32:48.219Z,101739.23
2017-08-10T18:35:16.116Z,101727.70
2017-08-10T18:37:43.968Z,101711.61
2017-08-10T18:40:11.836Z,101705.86
2017-08-10T18:42:39.667Z,101707.37
2017-08-10T18:45:07.572Z,101719.47
2017-08-10T18:47:35.410Z,101729.89
2017-08-10T18:50:03.315Z,101733.56
2017-08-10T18:52:31.173Z,101727.49
2017-08-10T18:54:59.082Z,101730.28
2017-08-10T18:57:26.943Z,101738.97
2017-08-10T18:59:54.809Z,101734.31
2017-08-10T19:02:22.763Z,101749.44
2017-08-10T19:04:50.669Z,101762.27
2017-08-10T19:07:18.571Z,101768.87
2017-08-10T19:09:46.472Z,101765.85
2017-08-10T19:12:14.305Z,101764.20
2017-08-10T19:14:42.046Z,101753.45
2017-08-10T19:17:09.840Z,101744.24
2017-08-10T19:19:37.679Z,101737.83
2017-08-10T19:22:05.471Z,101731.08
2017-08-10T19:24:33.334Z,101733.25
2017-08-10T19:27:01.121Z,101741.59
2017-08-10T19:29:28.949Z,101739.64
2017-08-10T19:31:56.784Z,101737.05
2017-08-10T19:34:24.673Z,101740.09
2017-08-10T19:36:52.535Z,101751.77
2017-08-10T19:39:20.422Z,101759.02
2017-08-10T19:41:48.177Z,101758.81
2017-08-10T19:44:15.959Z,101749.05
2017-08-10T19:46:43.782Z,101741.66
2017-08-10T19:49:11.592Z,101732.01
2017-08-10T19:51:39.348Z,101728.97
2017-08-10T19:54:07.233Z,101734.72
2017-08-10T19:56:35.035Z,101745.12
2017-08-10T19:59:02.876Z,101751.20
2017-08-10T20:01:30.644Z,101760.38
2017-08-10T20:03:58.437Z,101752.55
2017-08-10T20:06:26.272Z,101749.75
2017-08-10T20:08:54.016Z,101758.09
2017-08-10T20:11:21.808Z,101747.44
2017-08-10T20:13:49.559Z,101752.19
2017-08-10T20:16:17.368Z,101754.28
2017-08-10T20:18:45.083Z,101755.80
2017-08-10T20:21:12.889Z,101755.84
2017-08-10T20:23:40.724Z,101760.41
2017-08-10T20:26:08.507Z,101765.15
2017-08-10T20:28:36.269Z,101765.46
2017-08-10T20:31:04.101Z,101769.11
2017-08-10T20:33:31.888Z,101752.77
2017-08-10T20:35:59.673Z,101728.59
2017-08-10T20:38:27.486Z,101708.75
2017-08-10T20:40:55.261Z,101700.97
2017-08-10T20:43:23.066Z,101690.58
2017-08-10T20:45:50.779Z,101691.16
2017-08-10T20:48:18.612Z,101697.57
2017-08-10T20:50:46.370Z,101696.91
2017-08-10T20:53:14.156Z,101704.73
2017-08-10T20:55:41.928Z,101694.71
2017-08-10T20:58:09.868Z,101698.41
2017-08-10T21:00:37.620Z,101706.88
2017-08-10T21:03:05.476Z,101700.46
2017-08-10T21:05:33.274Z,101694.55
2017-08-10T21:08:01.023Z,101701.08
2017-08-10T21:10:28.804Z,101700.02
2017-08-10T21:12:56.593Z,101707.65
2017-08-10T21:15:24.424Z,101704.50
2017-08-10T21:17:52.314Z,101695.04
2017-08-10T21:20:20.197Z,101687.87
2017-08-10T21:22:48.022Z,101672.17
2017-08-10T21:25:15.901Z,101674.77
2017-08-10T21:27:43.747Z,101665.05
2017-08-10T21:30:11.643Z,101665.18
2017-08-10T21:32:39.475Z,101654.69
2017-08-10T21:35:07.336Z,101651.08
2017-08-10T21:37:35.160Z,101652.04
2017-08-10T21:40:02.969Z,101649.98
2017-08-10T21:42:30.886Z,101652.58
2017-08-10T21:44:58.692Z,101656.06
2017-08-10T21:47:26.583Z,101651.81
2017-08-10T21:49:54.409Z,101646.92
2017-08-10T21:52:22.289Z,101657.92
2017-08-10T21:54:50.117Z,101665.47
2017-08-10T21:57:17.949Z,101667.41
2017-08-10T21:59:45.769Z,101663.86
2017-08-10T22:02:13.635Z,101663.28
2017-08-10T22:04:41.390Z,101654.81
2017-08-10T22:07:09.149Z,101665.47
2017-08-10T22:09:36.977Z,101661.89
2017-08-10T22:12:04.849Z,101664.35
2017-08-10T22:14:32.683Z,101656.48
2017-08-10T22:17:00.536Z,101655.88
2017-08-10T22:19:28.412Z,101656.83
2017-08-10T22:21:56.147Z,101655.48
2017-08-10T22:24:23.993Z,101646.78
2017-08-10T22:26:51.732Z,101647.16
2017-08-10T22:29:19.607Z,101643.42
2017-08-10T22:31:47.427Z,101651.55
2017-08-10T22:34:15.316Z,101647.32
2017-08-10T22:36:43.143Z,101642.52
2017-08-10T22:39:11.022Z,101652.76
2017-08-10T22:41:38.849Z,101659.80
2017-08-10T22:44:06.729Z,101657.39
2017-08-10T22:46:34.562Z,101651.61
2017-08-10T22:49:02.458Z,101659.48
2017-08-10T22:51:30.273Z,101664.69
2017-08-10T22:53:58.028Z,101663.22
2017-08-10T22:56:25.798Z,101651.70
2017-08-10T22:58:53.581Z,101646.02
2017-08-10T23:01:21.450Z,101644.92
2017-08-10T23:03:49.333Z,101643.71
2017-08-10T23:06:17.209Z,101645.69
2017-08-10T23:08:45.049Z,101628.33
2017-08-10T23:11:12.926Z,101623.63
2017-08-10T23:13:40.761Z,101623.78
2017-08-10T23:16:08.640Z,101634.22
2017-08-10T23:18:36.359Z,101632.81
2017-08-10T23:21:04.124Z,101638.79
2017-08-10T23:23:31.847Z,101634.57
2017-08-10T23:25:59.644Z,101634.89
2017-08-10T23:28:27.472Z,101638.63
2017-08-10T23:30:55.289Z,101650.41
2017-08-10T23:33:23.207Z,101654.88
2017-08-10T23:35:51.045Z,101651.69
2017-08-10T23:38:18.924Z,101659.17
2017-08-10T23:40:46.750Z,101651.27
2017-08-10T23:43:14.628Z,101659.73
2017-08-10T23:45:42.425Z,101666.48
2017-08-10T23:48:10.332Z,101675.43
2017-08-10T23:50:38.148Z,101669.67
2017-08-10T23:53:05.942Z,101664.30
2017-08-10T23:55:33.767Z,101658.09
2017-08-10T23:58:01.535Z,101653.38
